createdAt,value
2022-10-08T00:04:27.542Z,47.90
2022-10-08T00:09:32.199Z,47.90
2022-10-08T00:14:35.473Z,48.00
2022-10-08T00:19:38.793Z,48.00
2022-10-08T00:24:43.864Z,48.00
2022-10-08T00:29:47.172Z,48.20
2022-10-08T00:34:50.454Z,48.10
2022-10-08T00:39:55.081Z,48.20
2022-10-08T00:45:00.300Z,48.40
2022-10-08T00:50:07.951Z,48.50
2022-10-08T00:55:15.308Z,48.50
2022-10-08T01:00:20.945Z,48.70
2022-10-08T01:05:31.580Z,48.60
2022-10-08T01:10:44.677Z,48.80
2022-10-08T01:15:58.705Z,49.00
2022-10-08T01:21:10.095Z,49.10
2022-10-08T01:26:34.525Z,49.10
2022-10-08T01:31:45.075Z,49.30
2022-10-08T01:36:51.596Z,49.20
2022-10-08T01:41:57.173Z,49.10
2022-10-08T01:47:07.213Z,49.10
2022-10-08T01:52:15.323Z,49.30
2022-10-08T01:57:18.803Z,49.40
2022-10-08T02:02:25.498Z,49.20
2022-10-08T02:07:32.122Z,49.40
2022-10-08T02:12:35.645Z,49.40
2022-10-08T02:17:48.120Z,49.40
2022-10-08T02:22:58.894Z,49.70
2022-10-08T02:28:10.742Z,49.70
2022-10-08T02:33:22.686Z,49.90
2022-10-08T02:38:33.087Z,49.80
2022-10-08T02:43:41.491Z,49.80
2022-10-08T02:48:49.675Z,49.80
2022-10-08T02:53:53.361Z,49.90
2022-10-08T02:58:57.199Z,49.70
2022-10-08T03:04:06.293Z,49.70
2022-10-08T03:09:13.584Z,50.10
2022-10-08T03:14:20.635Z,50.10
2022-10-08T03:19:25.372Z,50.10
2022-10-08T03:24:28.648Z,50.10
2022-10-08T03:29:31.944Z,50.20
2022-10-08T03:34:37.002Z,50.40
2022-10-08T03:39:40.419Z,50.60
2022-10-08T03:44:43.872Z,50.50
2022-10-08T03:49:48.468Z,50.60
2022-10-08T03:54:51.683Z,50.80
2022-10-08T03:59:55.001Z,50.80
2022-10-08T04:04:59.624Z,50.80
2022-10-08T04:10:03.250Z,51.00
2022-10-08T04:15:07.906Z,51.00
2022-10-08T04:20:12.803Z,51.10
2022-10-08T04:25:16.159Z,51.20
2022-10-08T04:30:19.359Z,51.10
2022-10-08T04:35:24.085Z,51.20
2022-10-08T04:40:27.296Z,51.40
2022-10-08T04:45:30.533Z,51.20
2022-10-08T04:50:35.217Z,51.30
2022-10-08T04:55:38.419Z,51.40
2022-10-08T05:00:41.645Z,51.40
2022-10-08T05:05:47.180Z,51.30
2022-10-08T05:10:50.825Z,51.60
2022-10-08T05:15:54.515Z,51.50
2022-10-08T05:21:02.901Z,51.50
2022-10-08T05:26:13.919Z,51.60
2022-10-08T05:31:17.912Z,52.40
2022-10-08T05:36:24.417Z,51.60
2022-10-08T05:41:29.670Z,51.80
2022-10-08T05:46:34.498Z,51.70
2022-10-08T05:51:39.259Z,51.70
2022-10-08T05:56:42.485Z,51.70
2022-10-08T06:01:45.749Z,51.70
2022-10-08T06:06:50.537Z,51.70
2022-10-08T06:11:53.865Z,52.00
2022-10-08T06:16:57.142Z,51.90
2022-10-08T06:22:02.119Z,52.00
2022-10-08T06:27:05.557Z,52.10
2022-10-08T06:32:09.053Z,52.00
2022-10-08T06:37:13.618Z,52.00
2022-10-08T06:42:16.831Z,52.10
2022-10-08T06:47:20.751Z,52.00
2022-10-08T06:52:25.610Z,52.10
2022-10-08T06:57:29.233Z,52.20
2022-10-08T07:02:32.875Z,52.10
2022-10-08T07:07:37.653Z,52.10
2022-10-08T07:12:40.891Z,52.30
2022-10-08T07:17:44.575Z,52.10
2022-10-08T07:22:49.888Z,52.10
2022-10-08T07:27:53.307Z,52.20
2022-10-08T07:32:56.572Z,52.20
2022-10-08T07:38:01.322Z,52.10
2022-10-08T07:43:05.127Z,52.20
2022-10-08T07:48:09.094Z,52.10
2022-10-08T07:53:13.817Z,52.20
2022-10-08T07:58:17.154Z,52.30
2022-10-08T08:03:20.455Z,52.20
2022-10-08T08:08:25.123Z,52.20
2022-10-08T08:13:34.457Z,52.30
2022-10-08T08:18:41.645Z,52.40
2022-10-08T08:23:48.231Z,52.40
2022-10-08T08:28:53.222Z,52.60
2022-10-08T08:33:57.947Z,52.50
2022-10-08T08:39:02.966Z,52.50
2022-10-08T08:44:11.607Z,52.60
2022-10-08T08:49:22.479Z,52.80
2022-10-08T08:54:27.434Z,52.90
2022-10-08T08:59:36.501Z,52.80
2022-10-08T09:04:45.334Z,52.70
2022-10-08T09:09:52.930Z,52.80
2022-10-08T09:14:58.989Z,52.90
2022-10-08T09:20:02.473Z,52.80
2022-10-08T09:25:12.063Z,52.80
2022-10-08T09:30:30.235Z,52.50
2022-10-08T09:35:35.429Z,52.00
2022-10-08T09:40:40.077Z,51.80
2022-10-08T09:45:45.430Z,51.50
2022-10-08T09:50:52.892Z,51.30
2022-10-08T09:56:01.584Z,51.00
2022-10-08T10:01:07.857Z,50.90
2022-10-08T10:06:11.138Z,50.70
2022-10-08T10:11:22.197Z,50.60
2022-10-08T10:16:30.472Z,50.20
2022-10-08T10:21:40.427Z,50.90
2022-10-08T10:26:46.442Z,49.90
2022-10-08T10:31:53.686Z,49.80
2022-10-08T10:36:58.668Z,50.00
2022-10-08T10:42:11.544Z,49.80
2022-10-08T10:47:15.703Z,49.10
2022-10-08T10:52:41.605Z,49.40
2022-10-08T10:58:05.068Z,48.00
2022-10-08T11:03:15.541Z,47.70
2022-10-08T11:08:32.036Z,47.60
2022-10-08T11:14:02.869Z,46.90
2022-10-08T11:19:11.498Z,46.50
2022-10-08T11:24:47.676Z,47.00
2022-10-08T11:30:01.344Z,45.80
2022-10-08T11:35:22.907Z,45.70
2022-10-08T11:40:31.528Z,45.10
2022-10-08T11:45:38.442Z,45.00
2022-10-08T11:50:41.647Z,44.90
2022-10-08T11:55:52.030Z,44.90
2022-10-08T12:01:04.203Z,43.60
2022-10-08T12:06:24.554Z,43.40
2022-10-08T12:11:53.001Z,43.00
2022-10-08T12:17:12.109Z,42.70
2022-10-08T12:22:44.027Z,42.40
2022-10-08T12:27:47.261Z,42.50
2022-10-08T12:32:57.407Z,43.30
2022-10-08T12:38:28.400Z,42.60
2022-10-08T12:43:43.718Z,42.40
2022-10-08T12:48:52.728Z,42.70
2022-10-08T12:53:58.349Z,42.50
2022-10-08T12:59:05.858Z,42.90
2022-10-08T13:04:17.923Z,42.50
2022-10-08T13:09:27.498Z,42.80
2022-10-08T13:14:32.990Z,42.50
2022-10-08T13:19:39.845Z,42.90
2022-10-08T13:24:44.574Z,43.50
2022-10-08T13:29:47.897Z,43.00
2022-10-08T13:34:55.728Z,43.00
2022-10-08T13:40:01.153Z,43.00
2022-10-08T13:45:06.364Z,43.20
2022-10-08T13:50:11.504Z,43.20
2022-10-08T13:55:23.814Z,43.20
2022-10-08T14:00:28.503Z,43.20
2022-10-08T14:05:38.405Z,43.40
2022-10-08T14:10:41.894Z,43.40
2022-10-08T14:15:45.187Z,43.60
2022-10-08T14:20:52.275Z,43.70
2022-10-08T14:25:55.543Z,43.40
2022-10-08T14:30:58.842Z,43.30
2022-10-08T14:36:03.783Z,43.20
2022-10-08T14:41:07.736Z,43.70
2022-10-08T14:46:11.278Z,43.00
2022-10-08T14:51:16.188Z,43.00
2022-10-08T14:56:19.549Z,43.20
2022-10-08T15:01:23.147Z,43.40
2022-10-08T15:06:27.835Z,43.60
2022-10-08T15:11:31.100Z,43.60
2022-10-08T15:16:34.375Z,43.70
2022-10-08T15:21:39.119Z,43.80
2022-10-08T15:26:42.453Z,43.80
2022-10-08T15:31:45.779Z,43.90
2022-10-08T15:36:50.477Z,43.90
2022-10-08T15:41:54.453Z,43.90
2022-10-08T15:47:01.575Z,44.00
2022-10-08T15:52:08.329Z,44.00
2022-10-08T15:57:13.436Z,44.10
2022-10-08T16:02:18.076Z,44.20
2022-10-08T16:07:23.255Z,44.20
2022-10-08T16:12:26.723Z,44.20
2022-10-08T16:17:30.642Z,44.20
2022-10-08T16:22:35.299Z,44.30
2022-10-08T16:27:38.566Z,44.40
2022-10-08T16:32:41.919Z,44.50
2022-10-08T16:37:47.178Z,44.70
2022-10-08T16:42:50.700Z,44.70
2022-10-08T16:47:54.123Z,44.70
2022-10-08T16:52:58.801Z,44.80
2022-10-08T16:58:02.059Z,45.70
2022-10-08T17:03:05.585Z,45.00
2022-10-08T17:08:10.277Z,45.00
2022-10-08T17:13:13.716Z,45.10
2022-10-08T17:18:17.295Z,45.10
2022-10-08T17:23:22.840Z,45.10
2022-10-08T17:28:29.599Z,45.20
2022-10-08T17:33:35.976Z,45.30
2022-10-08T17:38:43.442Z,45.30
2022-10-08T17:43:48.242Z,46.10
2022-10-08T17:48:53.285Z,45.50
2022-10-08T17:53:59.990Z,45.60
2022-10-08T17:59:04.312Z,45.70
2022-10-08T18:04:10.530Z,45.70
2022-10-08T18:09:18.706Z,45.60
2022-10-08T18:14:23.590Z,45.80
2022-10-08T18:19:27.947Z,45.80
2022-10-08T18:24:35.115Z,45.80
2022-10-08T18:29:38.536Z,45.80
2022-10-08T18:34:41.977Z,45.80
2022-10-08T18:39:47.089Z,45.80
2022-10-08T18:44:50.861Z,45.80
2022-10-08T18:49:54.511Z,45.80
2022-10-08T18:55:01.654Z,45.90
2022-10-08T19:00:07.832Z,46.00
2022-10-08T19:05:11.418Z,46.10
2022-10-08T19:10:16.510Z,46.20
2022-10-08T19:15:20.220Z,46.30
2022-10-08T19:20:23.782Z,46.20
2022-10-08T19:25:30.056Z,47.00
2022-10-08T19:30:35.890Z,46.50
2022-10-08T19:35:42.346Z,46.40
2022-10-08T19:40:49.285Z,46.60
2022-10-08T19:45:53.596Z,46.90
2022-10-08T19:50:58.526Z,46.90
2022-10-08T19:56:05.980Z,46.90
2022-10-08T20:01:11.848Z,47.00
2022-10-08T20:06:21.696Z,47.00
2022-10-08T20:11:31.803Z,47.00
2022-10-08T20:16:36.992Z,47.10
2022-10-08T20:21:40.438Z,46.90
2022-10-08T20:26:46.515Z,46.90
2022-10-08T20:31:54.208Z,46.90
2022-10-08T20:36:58.041Z,46.70
2022-10-08T20:42:02.842Z,46.60
2022-10-08T20:47:06.095Z,46.60
2022-10-08T20:52:09.300Z,46.60
2022-10-08T20:57:13.954Z,46.60
2022-10-08T21:02:19.782Z,46.60
2022-10-08T21:07:23.243Z,46.50
2022-10-08T21:12:27.841Z,46.40
2022-10-08T21:17:31.137Z,46.20
2022-10-08T21:22:34.491Z,46.10
2022-10-08T21:27:39.086Z,45.90
2022-10-08T21:32:42.356Z,45.80
2022-10-08T21:37:45.596Z,45.80
2022-10-08T21:42:50.698Z,45.70
2022-10-08T21:47:54.200Z,45.70
2022-10-08T21:52:57.480Z,46.30
2022-10-08T21:58:02.110Z,45.50
2022-10-08T22:03:05.544Z,45.40
2022-10-08T22:08:08.786Z,45.40
2022-10-08T22:13:13.774Z,45.30
2022-10-08T22:18:17.011Z,45.20
2022-10-08T22:23:21.155Z,45.30
2022-10-08T22:28:26.818Z,45.30
2022-10-08T22:33:31.132Z,45.40
2022-10-08T22:38:35.847Z,45.40
2022-10-08T22:43:41.876Z,45.40
2022-10-08T22:48:45.710Z,45.40
2022-10-08T22:53:49.546Z,45.40
2022-10-08T22:58:54.674Z,45.50
2022-10-08T23:03:57.978Z,45.40
2022-10-08T23:09:03.016Z,45.50
2022-10-08T23:14:08.031Z,45.40
2022-10-08T23:19:12.843Z,45.50
2022-10-08T23:24:16.269Z,45.70
2022-10-08T23:29:20.991Z,45.70
2022-10-08T23:34:24.359Z,45.80
2022-10-08T23:39:27.714Z,45.70
2022-10-08T23:44:32.291Z,45.70
2022-10-08T23:49:35.593Z,45.70
2022-10-08T23:54:38.934Z,45.60
2022-10-08T23:59:43.805Z,45.50
